Olmida — ZCNU4 — position and weather

sailwx.info

Track history (hours):
 
Tides and Currents Weather Stations Pressure Air Temp Water Temp Dewpoint Dewpoint Depression Visibility Wind Speed Wind Dir Waves Ship Positions

Olmida

Last reported at 2015-Aug-23 16:26 UTC. Time now 2015-Sep-03 17:13 UTC.
Position N 43°38' E 007°17'.
Warning: this ship's position is 11 days out of date.

Type: Pleasure craft. MMSI: 319196000.

Date/timePositionNaut miles runAvg speedWind from/ knotsBaromVisibWave heightAir tempDewpointWater temp
2015-Aug-23 16:26N 43°38' E 007°17'1011.7
2015-Aug-23 15:32N 43°32' E 007°05'1 1.3
2015-Aug-23 14:26N 43°32' E 007°03'1 0.6
2015-Aug-23 13:33N 43°32' E 007°03'0 0.0
2015-Aug-23 12:33N 43°32' E 007°03'0 0.0
2015-Aug-23 11:30N 43°32' E 007°03'0 0.0
2015-Aug-23 10:32N 43°32' E 007°03'0 0.0
2015-Aug-23 09:29N 43°32' E 007°03'0 0.0
2015-Aug-23 08:24N 43°32' E 007°03'4 4.1
2015-Aug-23 07:30N 43°28' E 007°01'1112.0
2015-Aug-23 06:33N 43°22' E 006°48'9 8.8
2015-Aug-23 05:31N 43°17' E 006°38'0 0.0
2015-Aug-23 04:32N 43°17' E 006°37'0 0.0
2015-Aug-23 03:33N 43°17' E 006°37'0 0.0
2015-Aug-23 02:33N 43°17' E 006°37'0 0.0
2015-Aug-23 01:33N 43°17' E 006°37'0 0.0
2015-Aug-23 00:33N 43°17' E 006°37'0 0.0
2015-Aug-22 23:33N 43°17' E 006°37'0 0.0
2015-Aug-22 22:33N 43°17' E 006°37'0 0.0
2015-Aug-22 21:33N 43°17' E 006°37'0 0.0
2015-Aug-22 20:33N 43°17' E 006°37'0 0.0
2015-Aug-22 19:33N 43°17' E 006°37'0 0.0
2015-Aug-22 18:31N 43°17' E 006°37'1 1.0
2015-Aug-22 17:28N 43°17' E 006°39'3 0.4
2015-Aug-22 10:16N 43°14' E 006°40'912.9
2015-Aug-22 09:33N 43°20' E 006°50'35 0.8
2015-Aug-20 14:17N 43°44' E 007°25'0 0.0
2015-Aug-20 13:33N 43°44' E 007°25'  
Track history (hours):
 
Tides and Currents Weather Stations Pressure Air Temp Water Temp Dewpoint Dewpoint Depression Visibility Wind Speed Wind Dir Waves Ship Positions

Olmida

Last reported at 2015-Aug-23 16:26 UTC. Time now 2015-Sep-03 17:13 UTC.
Position N 43°38' E 007°17'.
Warning: this ship's position is 11 days out of date.

Type: Pleasure craft. MMSI: 319196000.

Date/timePositionNaut miles runAvg speedWind from/ knotsBaromVisibWave heightAir tempDewpointWater temp
2015-Aug-23 16:26N 43°38' E 007°17'1011.7
2015-Aug-23 15:32N 43°32' E 007°05'1 1.3
2015-Aug-23 14:26N 43°32' E 007°03'1 0.6
2015-Aug-23 13:33N 43°32' E 007°03'0 0.0
2015-Aug-23 12:33N 43°32' E 007°03'0 0.0
2015-Aug-23 11:30N 43°32' E 007°03'0 0.0
2015-Aug-23 10:32N 43°32' E 007°03'0 0.0
2015-Aug-23 09:29N 43°32' E 007°03'0 0.0
2015-Aug-23 08:24N 43°32' E 007°03'4 4.1
2015-Aug-23 07:30N 43°28' E 007°01'1112.0
2015-Aug-23 06:33N 43°22' E 006°48'9 8.8
2015-Aug-23 05:31N 43°17' E 006°38'0 0.0
2015-Aug-23 04:32N 43°17' E 006°37'0 0.0
2015-Aug-23 03:33N 43°17' E 006°37'0 0.0
2015-Aug-23 02:33N 43°17' E 006°37'0 0.0
2015-Aug-23 01:33N 43°17' E 006°37'0 0.0
2015-Aug-23 00:33N 43°17' E 006°37'0 0.0
2015-Aug-22 23:33N 43°17' E 006°37'0 0.0
2015-Aug-22 22:33N 43°17' E 006°37'0 0.0
2015-Aug-22 21:33N 43°17' E 006°37'0 0.0
2015-Aug-22 20:33N 43°17' E 006°37'0 0.0
2015-Aug-22 19:33N 43°17' E 006°37'0 0.0
2015-Aug-22 18:31N 43°17' E 006°37'1 1.0
2015-Aug-22 17:28N 43°17' E 006°39'3 0.4
2015-Aug-22 10:16N 43°14' E 006°40'912.9
2015-Aug-22 09:33N 43°20' E 006°50'35 0.8
2015-Aug-20 14:17N 43°44' E 007°25'0 0.0
2015-Aug-20 13:33N 43°44' E 007°25'  

Dump ship's entire track history